sensor_id;sensor_type;location;lat;lon;timestamp;P1;durP1;ratioP1;P2;durP2;ratioP2
44706;SDS011;30433;45.596;8.408;2024-03-08T00:05:06;7.40;;;4.82;;
44706;SDS011;30433;45.596;8.408;2024-03-08T00:17:12;9.25;;;6.22;;
44706;SDS011;30433;45.596;8.408;2024-03-08T00:23:15;11.25;;;6.25;;
44706;SDS011;30433;45.596;8.408;2024-03-08T00:29:18;12.23;;;7.35;;
44706;SDS011;30433;45.596;8.408;2024-03-08T00:35:21;9.13;;;6.38;;
44706;SDS011;30433;45.596;8.408;2024-03-08T00:41:24;12.07;;;6.70;;
44706;SDS011;30433;45.596;8.408;2024-03-08T00:47:26;9.70;;;7.20;;
44706;SDS011;30433;45.596;8.408;2024-03-08T00:53:30;10.73;;;6.85;;
44706;SDS011;30433;45.596;8.408;2024-03-08T01:05:34;8.50;;;6.28;;
44706;SDS011;30433;45.596;8.408;2024-03-08T01:11:38;10.95;;;6.80;;
44706;SDS011;30433;45.596;8.408;2024-03-08T01:17:42;11.15;;;6.85;;
44706;SDS011;30433;45.596;8.408;2024-03-08T01:23:45;9.73;;;6.20;;
44706;SDS011;30433;45.596;8.408;2024-03-08T01:29:48;9.10;;;5.82;;
44706;SDS011;30433;45.596;8.408;2024-03-08T01:35:50;9.50;;;6.25;;
44706;SDS011;30433;45.596;8.408;2024-03-08T01:41:53;16.45;;;7.85;;
44706;SDS011;30433;45.596;8.408;2024-03-08T01:47:56;15.32;;;7.38;;
44706;SDS011;30433;45.596;8.408;2024-03-08T01:53:59;22.38;;;9.00;;
44706;SDS011;30433;45.596;8.408;2024-03-08T02:00:04;13.75;;;7.05;;
44706;SDS011;30433;45.596;8.408;2024-03-08T02:06:12;7.05;;;4.82;;
44706;SDS011;30433;45.596;8.408;2024-03-08T02:12:16;9.80;;;5.25;;
44706;SDS011;30433;45.596;8.408;2024-03-08T02:18:21;6.50;;;4.60;;
44706;SDS011;30433;45.596;8.408;2024-03-08T02:24:25;17.80;;;9.15;;
44706;SDS011;30433;45.596;8.408;2024-03-08T02:30:28;13.63;;;7.85;;
44706;SDS011;30433;45.596;8.408;2024-03-08T02:36:30;22.05;;;11.25;;
44706;SDS011;30433;45.596;8.408;2024-03-08T02:42:36;10.63;;;6.82;;
44706;SDS011;30433;45.596;8.408;2024-03-08T02:48:38;8.75;;;6.65;;
44706;SDS011;30433;45.596;8.408;2024-03-08T02:54:41;16.67;;;9.02;;
44706;SDS011;30433;45.596;8.408;2024-03-08T03:00:45;12.10;;;8.20;;
44706;SDS011;30433;45.596;8.408;2024-03-08T03:06:47;13.07;;;8.43;;
44706;SDS011;30433;45.596;8.408;2024-03-08T03:12:49;12.95;;;9.57;;
44706;SDS011;30433;45.596;8.408;2024-03-08T03:18:53;11.75;;;8.43;;
44706;SDS011;30433;45.596;8.408;2024-03-08T03:24:57;12.27;;;8.55;;
44706;SDS011;30433;45.596;8.408;2024-03-08T03:31:00;11.75;;;9.50;;
44706;SDS011;30433;45.596;8.408;2024-03-08T03:37:04;10.85;;;8.77;;
44706;SDS011;30433;45.596;8.408;2024-03-08T03:43:08;13.32;;;8.77;;
44706;SDS011;30433;45.596;8.408;2024-03-08T03:49:11;16.65;;;12.25;;
44706;SDS011;30433;45.596;8.408;2024-03-08T03:55:15;15.73;;;12.15;;
44706;SDS011;30433;45.596;8.408;2024-03-08T04:01:18;13.98;;;10.70;;
44706;SDS011;30433;45.596;8.408;2024-03-08T04:07:21;13.57;;;11.00;;
44706;SDS011;30433;45.596;8.408;2024-03-08T04:13:24;13.83;;;10.87;;
44706;SDS011;30433;45.596;8.408;2024-03-08T04:19:27;20.42;;;14.13;;
44706;SDS011;30433;45.596;8.408;2024-03-08T04:25:29;28.95;;;21.65;;
44706;SDS011;30433;45.596;8.408;2024-03-08T04:31:33;29.50;;;23.83;;
44706;SDS011;30433;45.596;8.408;2024-03-08T04:37:35;32.65;;;23.38;;
44706;SDS011;30433;45.596;8.408;2024-03-08T04:43:37;28.20;;;21.70;;
44706;SDS011;30433;45.596;8.408;2024-03-08T04:49:42;29.47;;;21.77;;
44706;SDS011;30433;45.596;8.408;2024-03-08T04:55:44;28.20;;;22.02;;
44706;SDS011;30433;45.596;8.408;2024-03-08T05:01:46;40.05;;;30.30;;
44706;SDS011;30433;45.596;8.408;2024-03-08T05:07:50;28.20;;;22.75;;
44706;SDS011;30433;45.596;8.408;2024-03-08T05:13:52;32.63;;;25.45;;
44706;SDS011;30433;45.596;8.408;2024-03-08T05:19:55;31.85;;;26.00;;
44706;SDS011;30433;45.596;8.408;2024-03-08T05:26:00;35.58;;;25.73;;
44706;SDS011;30433;45.596;8.408;2024-03-08T05:32:02;32.20;;;25.17;;
44706;SDS011;30433;45.596;8.408;2024-03-08T05:38:04;35.75;;;24.45;;
44706;SDS011;30433;45.596;8.408;2024-03-08T05:44:08;36.97;;;27.13;;
44706;SDS011;30433;45.596;8.408;2024-03-08T05:50:11;39.60;;;29.67;;
44706;SDS011;30433;45.596;8.408;2024-03-08T05:56:13;42.15;;;30.50;;
44706;SDS011;30433;45.596;8.408;2024-03-08T06:02:17;45.40;;;31.40;;
44706;SDS011;30433;45.596;8.408;2024-03-08T06:08:19;41.92;;;30.25;;
44706;SDS011;30433;45.596;8.408;2024-03-08T06:14:21;41.97;;;30.33;;
44706;SDS011;30433;45.596;8.408;2024-03-08T06:20:25;43.92;;;30.98;;
44706;SDS011;30433;45.596;8.408;2024-03-08T06:26:28;42.58;;;30.63;;
44706;SDS011;30433;45.596;8.408;2024-03-08T06:32:30;46.65;;;31.88;;
44706;SDS011;30433;45.596;8.408;2024-03-08T06:38:37;49.47;;;33.28;;
44706;SDS011;30433;45.596;8.408;2024-03-08T06:44:42;48.13;;;32.13;;
44706;SDS011;30433;45.596;8.408;2024-03-08T06:50:49;46.80;;;34.15;;
44706;SDS011;30433;45.596;8.408;2024-03-08T06:56:53;46.75;;;31.00;;
44706;SDS011;30433;45.596;8.408;2024-03-08T07:02:56;40.85;;;29.95;;
44706;SDS011;30433;45.596;8.408;2024-03-08T07:09:01;41.72;;;30.17;;
44706;SDS011;30433;45.596;8.408;2024-03-08T07:15:05;44.13;;;31.85;;
44706;SDS011;30433;45.596;8.408;2024-03-08T07:21:08;41.63;;;30.38;;
44706;SDS011;30433;45.596;8.408;2024-03-08T07:27:11;43.23;;;29.60;;
44706;SDS011;30433;45.596;8.408;2024-03-08T07:33:14;39.88;;;28.33;;
44706;SDS011;30433;45.596;8.408;2024-03-08T07:39:18;41.35;;;29.83;;
44706;SDS011;30433;45.596;8.408;2024-03-08T07:45:24;40.97;;;29.88;;
44706;SDS011;30433;45.596;8.408;2024-03-08T07:51:27;39.60;;;30.13;;
44706;SDS011;30433;45.596;8.408;2024-03-08T07:57:30;43.50;;;30.45;;
44706;SDS011;30433;45.596;8.408;2024-03-08T08:03:33;41.03;;;30.53;;
44706;SDS011;30433;45.596;8.408;2024-03-08T08:09:39;39.53;;;29.90;;
44706;SDS011;30433;45.596;8.408;2024-03-08T08:15:42;39.70;;;30.42;;
44706;SDS011;30433;45.596;8.408;2024-03-08T08:21:46;38.25;;;28.77;;
44706;SDS011;30433;45.596;8.408;2024-03-08T08:27:49;39.60;;;30.20;;
44706;SDS011;30433;45.596;8.408;2024-03-08T08:33:53;37.67;;;29.50;;
44706;SDS011;30433;45.596;8.408;2024-03-08T08:39:58;37.28;;;28.30;;
44706;SDS011;30433;45.596;8.408;2024-03-08T08:46:07;37.13;;;27.52;;
44706;SDS011;30433;45.596;8.408;2024-03-08T08:52:09;40.28;;;29.88;;
44706;SDS011;30433;45.596;8.408;2024-03-08T08:58:11;38.50;;;30.10;;
44706;SDS011;30433;45.596;8.408;2024-03-08T09:04:15;36.38;;;28.33;;
44706;SDS011;30433;45.596;8.408;2024-03-08T09:10:18;40.72;;;30.48;;
44706;SDS011;30433;45.596;8.408;2024-03-08T09:16:21;41.28;;;30.58;;
44706;SDS011;30433;45.596;8.408;2024-03-08T09:28:28;43.40;;;31.27;;
44706;SDS011;30433;45.596;8.408;2024-03-08T09:34:30;39.42;;;30.83;;
44706;SDS011;30433;45.596;8.408;2024-03-08T09:40:34;40.20;;;30.47;;
44706;SDS011;30433;45.596;8.408;2024-03-08T09:46:37;39.90;;;30.85;;
44706;SDS011;30433;45.596;8.408;2024-03-08T09:52:40;37.92;;;28.80;;
44706;SDS011;30433;45.596;8.408;2024-03-08T09:58:45;37.88;;;29.38;;
44706;SDS011;30433;45.596;8.408;2024-03-08T10:05:15;36.75;;;27.75;;
44706;SDS011;30433;45.596;8.408;2024-03-08T10:11:18;39.10;;;28.85;;
44706;SDS011;30433;45.596;8.408;2024-03-08T10:17:22;38.70;;;29.25;;
44706;SDS011;30433;45.596;8.408;2024-03-08T10:23:25;39.63;;;28.80;;
44706;SDS011;30433;45.596;8.408;2024-03-08T10:29:28;36.33;;;28.67;;
44706;SDS011;30433;45.596;8.408;2024-03-08T10:35:31;38.72;;;29.15;;
44706;SDS011;30433;45.596;8.408;2024-03-08T10:41:34;46.17;;;31.00;;
44706;SDS011;30433;45.596;8.408;2024-03-08T10:47:40;37.40;;;29.60;;
44706;SDS011;30433;45.596;8.408;2024-03-08T10:53:45;38.17;;;29.02;;
44706;SDS011;30433;45.596;8.408;2024-03-08T10:59:49;38.30;;;29.08;;
44706;SDS011;30433;45.596;8.408;2024-03-08T11:05:52;46.72;;;31.63;;
44706;SDS011;30433;45.596;8.408;2024-03-08T11:18:25;37.95;;;29.00;;
44706;SDS011;30433;45.596;8.408;2024-03-08T11:24:28;38.67;;;29.47;;
44706;SDS011;30433;45.596;8.408;2024-03-08T11:30:41;40.28;;;31.83;;
44706;SDS011;30433;45.596;8.408;2024-03-08T11:36:47;39.90;;;30.73;;
44706;SDS011;30433;45.596;8.408;2024-03-08T11:42:50;43.72;;;35.10;;
44706;SDS011;30433;45.596;8.408;2024-03-08T11:48:54;44.27;;;33.50;;
44706;SDS011;30433;45.596;8.408;2024-03-08T11:54:57;41.17;;;32.15;;
44706;SDS011;30433;45.596;8.408;2024-03-08T12:01:02;38.93;;;29.43;;
44706;SDS011;30433;45.596;8.408;2024-03-08T12:07:09;44.28;;;31.85;;
44706;SDS011;30433;45.596;8.408;2024-03-08T12:13:13;36.63;;;28.63;;
44706;SDS011;30433;45.596;8.408;2024-03-08T12:19:15;37.57;;;30.13;;
44706;SDS011;30433;45.596;8.408;2024-03-08T12:25:19;57.83;;;41.13;;
44706;SDS011;30433;45.596;8.408;2024-03-08T12:31:22;35.10;;;27.88;;
44706;SDS011;30433;45.596;8.408;2024-03-08T12:37:25;37.03;;;29.58;;
44706;SDS011;30433;45.596;8.408;2024-03-08T12:43:30;35.03;;;28.70;;
44706;SDS011;30433;45.596;8.408;2024-03-08T12:49:34;32.60;;;27.63;;
44706;SDS011;30433;45.596;8.408;2024-03-08T12:55:37;30.30;;;25.67;;
44706;SDS011;30433;45.596;8.408;2024-03-08T13:01:41;30.63;;;25.25;;
44706;SDS011;30433;45.596;8.408;2024-03-08T13:07:44;33.05;;;26.77;;
44706;SDS011;30433;45.596;8.408;2024-03-08T13:13:46;32.65;;;26.48;;
44706;SDS011;30433;45.596;8.408;2024-03-08T13:19:50;33.05;;;25.48;;
44706;SDS011;30433;45.596;8.408;2024-03-08T13:25:56;34.92;;;25.95;;
44706;SDS011;30433;45.596;8.408;2024-03-08T13:31:58;29.30;;;24.73;;
44706;SDS011;30433;45.596;8.408;2024-03-08T13:38:03;29.15;;;24.38;;
44706;SDS011;30433;45.596;8.408;2024-03-08T13:44:09;30.55;;;25.60;;
44706;SDS011;30433;45.596;8.408;2024-03-08T13:50:11;32.88;;;25.48;;
44706;SDS011;30433;45.596;8.408;2024-03-08T13:56:19;31.30;;;25.27;;
44706;SDS011;30433;45.596;8.408;2024-03-08T14:02:21;30.67;;;24.90;;
44706;SDS011;30433;45.596;8.408;2024-03-08T14:08:28;32.03;;;26.30;;
44706;SDS011;30433;45.596;8.408;2024-03-08T14:14:34;29.33;;;24.70;;
44706;SDS011;30433;45.596;8.408;2024-03-08T14:20:37;27.17;;;22.50;;
44706;SDS011;30433;45.596;8.408;2024-03-08T14:26:40;30.27;;;24.53;;
44706;SDS011;30433;45.596;8.408;2024-03-08T14:32:43;30.83;;;24.70;;
44706;SDS011;30433;45.596;8.408;2024-03-08T14:38:47;28.95;;;25.33;;
44706;SDS011;30433;45.596;8.408;2024-03-08T14:44:49;31.23;;;25.58;;
44706;SDS011;30433;45.596;8.408;2024-03-08T14:50:54;28.15;;;23.77;;
44706;SDS011;30433;45.596;8.408;2024-03-08T14:56:56;26.10;;;21.50;;
44706;SDS011;30433;45.596;8.408;2024-03-08T15:02:59;22.08;;;17.83;;
44706;SDS011;30433;45.596;8.408;2024-03-08T15:09:04;23.55;;;17.75;;
44706;SDS011;30433;45.596;8.408;2024-03-08T15:15:12;22.60;;;17.27;;
44706;SDS011;30433;45.596;8.408;2024-03-08T15:21:18;18.35;;;15.27;;
44706;SDS011;30433;45.596;8.408;2024-03-08T15:27:22;20.20;;;15.52;;
44706;SDS011;30433;45.596;8.408;2024-03-08T15:33:25;27.85;;;21.75;;
44706;SDS011;30433;45.596;8.408;2024-03-08T15:39:29;27.70;;;20.73;;
44706;SDS011;30433;45.596;8.408;2024-03-08T15:45:35;28.40;;;23.52;;
44706;SDS011;30433;45.596;8.408;2024-03-08T15:51:37;20.98;;;17.80;;
44706;SDS011;30433;45.596;8.408;2024-03-08T15:57:41;19.15;;;15.70;;
44706;SDS011;30433;45.596;8.408;2024-03-08T16:03:45;18.73;;;15.73;;
44706;SDS011;30433;45.596;8.408;2024-03-08T16:09:49;15.05;;;13.45;;
44706;SDS011;30433;45.596;8.408;2024-03-08T16:15:52;19.77;;;14.37;;
44706;SDS011;30433;45.596;8.408;2024-03-08T16:21:58;17.15;;;14.05;;
44706;SDS011;30433;45.596;8.408;2024-03-08T16:28:00;18.33;;;13.63;;
44706;SDS011;30433;45.596;8.408;2024-03-08T16:34:03;17.27;;;13.55;;
44706;SDS011;30433;45.596;8.408;2024-03-08T16:40:10;18.52;;;13.32;;
44706;SDS011;30433;45.596;8.408;2024-03-08T16:46:15;19.05;;;14.70;;
44706;SDS011;30433;45.596;8.408;2024-03-08T16:52:18;19.73;;;14.00;;
44706;SDS011;30433;45.596;8.408;2024-03-08T16:58:23;17.95;;;13.43;;
44706;SDS011;30433;45.596;8.408;2024-03-08T17:04:27;17.40;;;15.32;;
44706;SDS011;30433;45.596;8.408;2024-03-08T17:10:31;19.50;;;14.77;;
44706;SDS011;30433;45.596;8.408;2024-03-08T17:16:39;17.95;;;15.15;;
44706;SDS011;30433;45.596;8.408;2024-03-08T17:22:42;18.23;;;14.85;;
44706;SDS011;30433;45.596;8.408;2024-03-08T17:28:45;17.98;;;14.75;;
44706;SDS011;30433;45.596;8.408;2024-03-08T17:34:49;19.45;;;15.20;;
44706;SDS011;30433;45.596;8.408;2024-03-08T17:40:52;17.92;;;15.02;;
44706;SDS011;30433;45.596;8.408;2024-03-08T17:46:55;17.33;;;14.75;;
44706;SDS011;30433;45.596;8.408;2024-03-08T17:53:00;19.83;;;16.30;;
44706;SDS011;30433;45.596;8.408;2024-03-08T17:59:04;18.15;;;16.27;;
44706;SDS011;30433;45.596;8.408;2024-03-08T18:05:08;21.55;;;17.40;;
44706;SDS011;30433;45.596;8.408;2024-03-08T18:11:15;19.60;;;16.65;;
44706;SDS011;30433;45.596;8.408;2024-03-08T18:17:18;22.05;;;17.15;;
44706;SDS011;30433;45.596;8.408;2024-03-08T18:23:20;19.58;;;17.42;;
44706;SDS011;30433;45.596;8.408;2024-03-08T18:29:25;22.23;;;19.63;;
44706;SDS011;30433;45.596;8.408;2024-03-08T18:35:28;21.90;;;19.10;;
44706;SDS011;30433;45.596;8.408;2024-03-08T18:47:36;24.23;;;20.65;;
44706;SDS011;30433;45.596;8.408;2024-03-08T18:53:39;20.85;;;18.38;;
44706;SDS011;30433;45.596;8.408;2024-03-08T18:59:42;22.17;;;18.30;;
44706;SDS011;30433;45.596;8.408;2024-03-08T19:05:46;23.48;;;19.90;;
44706;SDS011;30433;45.596;8.408;2024-03-08T19:11:49;28.25;;;22.80;;
44706;SDS011;30433;45.596;8.408;2024-03-08T19:17:54;26.55;;;22.92;;
44706;SDS011;30433;45.596;8.408;2024-03-08T19:30:02;26.55;;;22.30;;
44706;SDS011;30433;45.596;8.408;2024-03-08T19:36:06;25.33;;;22.25;;
44706;SDS011;30433;45.596;8.408;2024-03-08T19:42:14;25.52;;;22.08;;
44706;SDS011;30433;45.596;8.408;2024-03-08T19:48:17;26.52;;;22.95;;
44706;SDS011;30433;45.596;8.408;2024-03-08T19:54:21;27.88;;;23.75;;
44706;SDS011;30433;45.596;8.408;2024-03-08T20:00:25;27.00;;;23.05;;
44706;SDS011;30433;45.596;8.408;2024-03-08T20:06:29;27.45;;;23.98;;
44706;SDS011;30433;45.596;8.408;2024-03-08T20:12:32;26.35;;;22.83;;
44706;SDS011;30433;45.596;8.408;2024-03-08T20:18:38;23.50;;;20.75;;
44706;SDS011;30433;45.596;8.408;2024-03-08T20:24:42;24.25;;;20.73;;
44706;SDS011;30433;45.596;8.408;2024-03-08T20:30:45;22.25;;;19.85;;
44706;SDS011;30433;45.596;8.408;2024-03-08T20:36:49;22.00;;;19.48;;
44706;SDS011;30433;45.596;8.408;2024-03-08T20:42:51;22.45;;;19.20;;
44706;SDS011;30433;45.596;8.408;2024-03-08T20:48:53;23.13;;;20.63;;
44706;SDS011;30433;45.596;8.408;2024-03-08T20:54:57;24.17;;;20.98;;
44706;SDS011;30433;45.596;8.408;2024-03-08T21:01:00;25.55;;;21.23;;
44706;SDS011;30433;45.596;8.408;2024-03-08T21:07:04;26.33;;;22.55;;
44706;SDS011;30433;45.596;8.408;2024-03-08T21:13:08;25.57;;;22.40;;
44706;SDS011;30433;45.596;8.408;2024-03-08T21:19:11;23.70;;;20.30;;
44706;SDS011;30433;45.596;8.408;2024-03-08T21:25:14;24.95;;;20.92;;
44706;SDS011;30433;45.596;8.408;2024-03-08T21:31:19;23.58;;;19.60;;
44706;SDS011;30433;45.596;8.408;2024-03-08T21:37:23;27.27;;;21.50;;
44706;SDS011;30433;45.596;8.408;2024-03-08T21:43:26;23.03;;;18.87;;
44706;SDS011;30433;45.596;8.408;2024-03-08T21:49:30;20.27;;;16.17;;
44706;SDS011;30433;45.596;8.408;2024-03-08T21:55:33;19.02;;;15.30;;
44706;SDS011;30433;45.596;8.408;2024-03-08T22:01:35;19.35;;;16.33;;
44706;SDS011;30433;45.596;8.408;2024-03-08T22:07:40;21.17;;;17.48;;
44706;SDS011;30433;45.596;8.408;2024-03-08T22:13:42;18.38;;;15.80;;
44706;SDS011;30433;45.596;8.408;2024-03-08T22:19:45;18.50;;;16.40;;
44706;SDS011;30433;45.596;8.408;2024-03-08T22:25:50;19.95;;;15.68;;
44706;SDS011;30433;45.596;8.408;2024-03-08T22:31:52;17.52;;;15.63;;
44706;SDS011;30433;45.596;8.408;2024-03-08T22:37:54;20.08;;;15.20;;
44706;SDS011;30433;45.596;8.408;2024-03-08T22:43:58;18.02;;;13.25;;
44706;SDS011;30433;45.596;8.408;2024-03-08T22:50:01;15.75;;;13.05;;
44706;SDS011;30433;45.596;8.408;2024-03-08T22:56:05;17.63;;;13.70;;
44706;SDS011;30433;45.596;8.408;2024-03-08T23:02:09;20.02;;;15.52;;
44706;SDS011;30433;45.596;8.408;2024-03-08T23:08:11;18.60;;;14.57;;
44706;SDS011;30433;45.596;8.408;2024-03-08T23:14:14;18.15;;;14.63;;
44706;SDS011;30433;45.596;8.408;2024-03-08T23:20:18;17.35;;;14.38;;
44706;SDS011;30433;45.596;8.408;2024-03-08T23:26:21;18.83;;;14.73;;
44706;SDS011;30433;45.596;8.408;2024-03-08T23:32:24;17.53;;;14.63;;
44706;SDS011;30433;45.596;8.408;2024-03-08T23:38:28;18.05;;;14.82;;
44706;SDS011;30433;45.596;8.408;2024-03-08T23:44:31;18.73;;;14.52;;
44706;SDS011;30433;45.596;8.408;2024-03-08T23:50:34;17.05;;;14.40;;
44706;SDS011;30433;45.596;8.408;2024-03-08T23:56:38;19.85;;;14.25;;
